createdAt,value
2019-02-16T00:01:59.790Z,7.20
2019-02-16T00:04:28.947Z,7.20
2019-02-16T00:06:57.859Z,7.20
2019-02-16T00:09:26.725Z,7.30
2019-02-16T00:11:55.676Z,7.30
2019-02-16T00:14:24.602Z,7.30
2019-02-16T00:16:53.482Z,7.20
2019-02-16T00:19:22.447Z,7.20
2019-02-16T00:21:51.238Z,7.20
2019-02-16T00:24:20.022Z,7.20
2019-02-16T00:26:48.936Z,7.20
2019-02-16T00:29:17.794Z,7.00
2019-02-16T00:31:46.646Z,7.00
2019-02-16T00:34:15.518Z,6.90
2019-02-16T00:36:44.361Z,7.00
2019-02-16T00:39:13.403Z,7.00
2019-02-16T00:41:42.230Z,7.10
2019-02-16T00:44:11.087Z,7.10
2019-02-16T00:46:39.949Z,7.00
2019-02-16T00:49:08.867Z,7.00
2019-02-16T00:51:37.702Z,7.00
2019-02-16T00:54:06.697Z,7.00
2019-02-16T00:56:35.515Z,6.80
2019-02-16T00:59:04.423Z,6.80
2019-02-16T01:01:33.432Z,6.80
2019-02-16T01:04:02.348Z,6.70
2019-02-16T01:06:31.377Z,6.70
2019-02-16T01:09:00.196Z,6.60
2019-02-16T01:11:29.095Z,6.50
2019-02-16T01:13:57.984Z,6.30
2019-02-16T01:16:26.856Z,6.30
2019-02-16T01:18:55.760Z,6.30
2019-02-16T01:21:24.648Z,6.30
2019-02-16T01:23:53.440Z,6.20
2019-02-16T01:26:22.383Z,6.10
2019-02-16T01:28:51.646Z,6.10
2019-02-16T01:31:20.676Z,6.10
2019-02-16T01:33:49.570Z,6.20
2019-02-16T01:36:18.431Z,6.20
2019-02-16T01:38:47.274Z,6.20
2019-02-16T01:41:16.050Z,6.20
2019-02-16T01:43:44.879Z,6.10
2019-02-16T01:46:13.667Z,6.10
2019-02-16T01:48:42.588Z,5.90
2019-02-16T01:51:11.396Z,5.70
2019-02-16T01:53:40.260Z,5.70
2019-02-16T01:56:09.127Z,5.70
2019-02-16T01:58:37.966Z,5.50
2019-02-16T02:01:06.946Z,5.40
2019-02-16T02:03:35.882Z,5.30
2019-02-16T02:06:04.818Z,5.20
2019-02-16T02:08:33.778Z,5.20
2019-02-16T02:11:02.557Z,5.30
2019-02-16T02:13:31.817Z,5.20
2019-02-16T02:16:00.770Z,5.20
2019-02-16T02:18:29.611Z,5.20
2019-02-16T02:20:58.533Z,5.20
2019-02-16T02:23:27.358Z,5.20
2019-02-16T02:25:56.171Z,5.30
2019-02-16T02:28:25.141Z,5.30
2019-02-16T02:30:54.017Z,5.40
2019-02-16T02:33:22.792Z,5.40
2019-02-16T02:35:51.634Z,5.30
2019-02-16T02:38:20.472Z,5.10
2019-02-16T02:40:49.262Z,4.90
2019-02-16T02:43:18.098Z,4.80
2019-02-16T02:45:47.096Z,4.90
2019-02-16T02:48:16.017Z,4.70
2019-02-16T02:50:44.866Z,4.70
2019-02-16T02:53:13.965Z,4.80
2019-02-16T02:55:42.894Z,4.70
2019-02-16T02:58:11.767Z,4.60
2019-02-16T03:00:40.675Z,4.40
2019-02-16T03:03:09.479Z,4.30
2019-02-16T03:05:38.329Z,4.30
2019-02-16T03:08:07.111Z,4.40
2019-02-16T03:10:35.895Z,4.30
2019-02-16T03:13:04.792Z,4.30
2019-02-16T03:15:33.708Z,4.20
2019-02-16T03:18:02.512Z,4.30
2019-02-16T03:20:31.385Z,4.40
2019-02-16T03:23:14.218Z,4.40
2019-02-16T03:25:46.466Z,4.30
2019-02-16T03:28:42.351Z,4.40
2019-02-16T03:31:51.422Z,4.50
2019-02-16T03:34:28.003Z,4.50
2019-02-16T03:37:24.615Z,4.50
2019-02-16T03:39:53.519Z,4.40
2019-02-16T03:42:22.335Z,4.30
2019-02-16T03:44:51.250Z,4.20
2019-02-16T03:47:20.069Z,4.10
2019-02-16T03:49:48.847Z,4.00
2019-02-16T03:52:17.654Z,4.00
2019-02-16T03:54:46.428Z,4.00
2019-02-16T03:57:15.280Z,4.10
2019-02-16T03:59:44.115Z,4.10
2019-02-16T04:02:12.977Z,4.10
2019-02-16T04:04:41.953Z,4.20
2019-02-16T04:07:10.873Z,4.10
2019-02-16T04:09:39.853Z,4.20
2019-02-16T04:12:08.660Z,4.20
2019-02-16T04:14:37.448Z,4.20
2019-02-16T04:17:06.266Z,4.20
2019-02-16T04:19:35.065Z,4.20
2019-02-16T04:22:04.066Z,4.10
2019-02-16T04:24:32.895Z,4.20
2019-02-16T04:27:01.660Z,4.20
2019-02-16T04:29:30.673Z,4.10
2019-02-16T04:31:59.527Z,4.00
2019-02-16T04:34:28.386Z,3.90
2019-02-16T04:36:57.253Z,3.80
2019-02-16T04:39:26.118Z,3.70
2019-02-16T04:41:54.957Z,3.70
2019-02-16T04:44:23.844Z,3.60
2019-02-16T04:46:52.706Z,3.70
2019-02-16T04:49:21.573Z,3.80
2019-02-16T04:52:09.673Z,3.90
2019-02-16T04:54:40.337Z,3.80
2019-02-16T04:57:09.422Z,3.70
2019-02-16T04:59:38.304Z,3.60
2019-02-16T05:02:07.176Z,3.60
2019-02-16T05:04:36.089Z,3.50
2019-02-16T05:07:04.908Z,3.40
2019-02-16T05:09:33.670Z,3.50
2019-02-16T05:12:02.490Z,3.50
2019-02-16T05:14:31.620Z,3.50
2019-02-16T05:17:00.410Z,3.50
2019-02-16T05:19:29.308Z,3.50
2019-02-16T05:21:58.169Z,3.50
2019-02-16T05:24:26.975Z,3.50
2019-02-16T05:26:55.760Z,3.50
2019-02-16T05:29:24.576Z,3.50
2019-02-16T05:31:53.421Z,3.50
2019-02-16T05:34:22.355Z,3.50
2019-02-16T05:36:51.234Z,3.50
2019-02-16T05:39:20.072Z,3.50
2019-02-16T05:41:48.892Z,3.40
2019-02-16T05:44:17.770Z,3.40
2019-02-16T05:46:46.635Z,3.50
2019-02-16T05:49:15.613Z,3.50
2019-02-16T05:51:44.509Z,3.50
2019-02-16T05:54:13.428Z,3.40
2019-02-16T05:56:42.212Z,3.40
2019-02-16T05:59:11.011Z,3.50
2019-02-16T06:01:39.891Z,3.60
2019-02-16T06:04:08.866Z,3.50
2019-02-16T06:06:37.846Z,3.50
2019-02-16T06:09:06.674Z,3.50
2019-02-16T06:11:35.441Z,3.50
2019-02-16T06:14:04.211Z,3.50
2019-02-16T06:16:32.975Z,3.50
2019-02-16T06:19:01.873Z,3.50
2019-02-16T06:21:30.797Z,3.50
2019-02-16T06:23:59.731Z,3.60
2019-02-16T06:26:28.579Z,3.60
2019-02-16T06:28:57.456Z,3.50
2019-02-16T06:31:26.340Z,3.50
2019-02-16T06:33:55.193Z,3.50
2019-02-16T06:36:37.249Z,3.60
2019-02-16T06:39:06.180Z,3.60
2019-02-16T06:41:35.095Z,3.70
2019-02-16T06:44:03.945Z,3.60
2019-02-16T06:46:32.796Z,3.60
2019-02-16T06:49:01.646Z,3.60
2019-02-16T06:51:30.521Z,3.60
2019-02-16T06:53:59.450Z,3.60
2019-02-16T06:56:45.669Z,3.50
2019-02-16T06:59:14.525Z,3.40
2019-02-16T07:01:43.388Z,3.40
2019-02-16T07:04:12.261Z,3.60
2019-02-16T07:06:41.056Z,3.70
2019-02-16T07:09:10.083Z,3.60
2019-02-16T07:11:39.039Z,3.50
2019-02-16T07:14:07.839Z,3.50
2019-02-16T07:16:55.817Z,3.50
2019-02-16T07:19:27.776Z,3.50
2019-02-16T07:21:56.689Z,3.60
2019-02-16T07:24:26.347Z,3.60
2019-02-16T07:26:55.156Z,3.70
2019-02-16T07:29:24.070Z,3.70
2019-02-16T07:31:52.898Z,3.80
2019-02-16T07:34:21.848Z,3.80
2019-02-16T07:36:50.866Z,3.80
2019-02-16T07:39:19.746Z,3.80
2019-02-16T07:41:48.520Z,3.90
2019-02-16T07:44:45.433Z,3.80
2019-02-16T07:47:20.628Z,3.90
2019-02-16T07:50:08.557Z,3.90
2019-02-16T07:52:55.836Z,4.10
2019-02-16T07:55:57.962Z,4.20
2019-02-16T07:59:04.233Z,4.40
2019-02-16T08:01:45.340Z,4.40
2019-02-16T08:04:39.233Z,4.70
2019-02-16T08:07:25.809Z,4.90
2019-02-16T08:10:08.850Z,5.00
2019-02-16T08:12:48.536Z,5.30
2019-02-16T08:15:39.552Z,5.70
2019-02-16T08:18:48.235Z,5.90
2019-02-16T08:21:29.720Z,6.00
2019-02-16T08:24:13.531Z,6.10
2019-02-16T08:26:51.434Z,6.20
2019-02-16T08:29:32.182Z,6.20
2019-02-16T08:32:14.750Z,6.30
2019-02-16T08:35:05.855Z,6.40
2019-02-16T08:37:54.127Z,6.40
2019-02-16T08:40:47.185Z,6.50
2019-02-16T08:43:41.425Z,6.60
2019-02-16T08:46:28.409Z,6.70
2019-02-16T08:49:18.962Z,6.90
2019-02-16T08:52:09.762Z,7.00
2019-02-16T08:54:49.404Z,7.10
2019-02-16T08:57:47.126Z,7.10
2019-02-16T09:00:37.155Z,7.20
2019-02-16T09:03:25.270Z,7.40
2019-02-16T09:06:16.084Z,7.50
2019-02-16T09:09:04.082Z,7.80
2019-02-16T09:11:44.640Z,8.00
2019-02-16T09:14:50.956Z,8.10
2019-02-16T09:17:33.790Z,8.20
2019-02-16T09:20:34.000Z,8.20
2019-02-16T09:23:13.933Z,8.40
2019-02-16T09:26:04.588Z,8.60
2019-02-16T09:28:58.316Z,8.60
2019-02-16T09:31:52.287Z,8.90
2019-02-16T09:34:31.474Z,9.20
2019-02-16T09:37:29.005Z,9.30
2019-02-16T09:40:18.942Z,9.40
2019-02-16T09:42:53.365Z,9.50
2019-02-16T09:45:40.563Z,9.60
2019-02-16T09:48:28.678Z,9.70
2019-02-16T09:51:22.749Z,9.60
2019-02-16T09:54:09.497Z,9.80
2019-02-16T09:56:55.912Z,9.90
2019-02-16T09:59:39.327Z,10.00
2019-02-16T10:02:35.564Z,10.10
2019-02-16T10:05:33.568Z,10.20
2019-02-16T10:08:13.598Z,10.50
2019-02-16T10:10:51.956Z,10.80
2019-02-16T10:13:39.979Z,11.00
2019-02-16T10:16:33.513Z,10.90
2019-02-16T10:19:11.308Z,11.00
2019-02-16T10:21:56.056Z,11.20
2019-02-16T10:24:47.253Z,11.20
2019-02-16T10:27:34.791Z,11.50
2019-02-16T10:30:25.546Z,11.70
2019-02-16T10:33:19.617Z,11.70
2019-02-16T10:36:13.690Z,12.60
2019-02-16T10:39:07.635Z,14.30
2019-02-16T10:41:54.509Z,16.20
2019-02-16T10:44:35.630Z,18.30
2019-02-16T10:47:26.816Z,19.80
2019-02-16T10:50:33.556Z,20.50
2019-02-16T10:53:27.839Z,21.90
2019-02-16T10:56:03.889Z,23.20
2019-02-16T10:58:52.290Z,23.70
2019-02-16T11:01:42.051Z,23.50
2019-02-16T11:04:38.124Z,23.80
2019-02-16T11:07:11.435Z,24.30
2019-02-16T11:09:45.433Z,25.60
2019-02-16T11:12:45.446Z,26.60
2019-02-16T11:15:24.833Z,27.30
2019-02-16T11:18:11.402Z,27.60
2019-02-16T11:20:58.267Z,27.70
2019-02-16T11:23:58.350Z,27.40
2019-02-16T11:26:44.039Z,27.40
2019-02-16T11:29:39.814Z,26.60
2019-02-16T11:32:30.940Z,27.00
2019-02-16T11:35:21.946Z,26.30
2019-02-16T11:37:57.524Z,26.40
2019-02-16T11:40:41.661Z,27.10
2019-02-16T11:43:27.588Z,27.60
2019-02-16T11:46:14.284Z,28.90
2019-02-16T11:49:01.008Z,30.30
2019-02-16T11:51:57.742Z,31.10
2019-02-16T11:54:33.742Z,31.30
2019-02-16T11:57:20.585Z,31.60
2019-02-16T11:59:58.570Z,32.40
2019-02-16T12:02:42.799Z,32.90
2019-02-16T12:05:35.199Z,30.70
2019-02-16T12:08:22.213Z,29.90
2019-02-16T12:11:05.114Z,30.80
2019-02-16T12:13:54.953Z,31.20
2019-02-16T12:16:37.069Z,31.40
2019-02-16T12:19:23.808Z,29.80
2019-02-16T12:22:13.896Z,28.20
2019-02-16T12:25:05.681Z,27.40
2019-02-16T12:27:49.094Z,24.80
2019-02-16T12:30:42.666Z,23.70
2019-02-16T12:33:29.245Z,22.30
2019-02-16T12:36:18.559Z,20.60
2019-02-16T12:39:20.791Z,19.80
2019-02-16T12:42:01.768Z,18.90
2019-02-16T12:44:40.437Z,18.20
2019-02-16T12:47:14.438Z,17.90
2019-02-16T12:50:39.207Z,17.70
2019-02-16T12:53:25.476Z,17.50
2019-02-16T12:56:19.111Z,17.20
2019-02-16T12:59:00.900Z,17.00
2019-02-16T13:01:51.306Z,16.80
2019-02-16T13:04:37.337Z,16.70
2019-02-16T13:07:23.523Z,16.60
2019-02-16T13:10:06.216Z,16.60
2019-02-16T13:12:53.397Z,16.40
2019-02-16T13:15:28.862Z,16.30
2019-02-16T13:18:18.976Z,16.20
2019-02-16T13:21:15.073Z,16.20
2019-02-16T13:23:58.649Z,16.20
2019-02-16T13:26:35.396Z,16.20
2019-02-16T13:29:12.398Z,16.20
2019-02-16T13:31:53.251Z,16.30
2019-02-16T13:34:37.193Z,16.30
2019-02-16T13:37:17.152Z,16.30
2019-02-16T13:40:15.127Z,16.30
2019-02-16T13:42:55.267Z,16.30
2019-02-16T13:45:30.011Z,16.30
2019-02-16T13:48:12.473Z,16.30
2019-02-16T13:51:02.352Z,16.30
2019-02-16T13:53:44.674Z,16.40
2019-02-16T13:56:31.815Z,17.00
2019-02-16T13:59:25.085Z,19.50
2019-02-16T14:02:12.355Z,21.60
2019-02-16T14:05:02.312Z,22.80
2019-02-16T14:07:58.480Z,22.20
2019-02-16T14:10:44.501Z,20.10
2019-02-16T14:13:18.464Z,19.40
2019-02-16T14:16:20.803Z,18.80
2019-02-16T14:18:48.823Z,18.10
2019-02-16T14:21:16.989Z,17.80
2019-02-16T14:23:45.114Z,17.40
2019-02-16T14:26:13.173Z,17.30
2019-02-16T14:28:41.205Z,17.20
2019-02-16T14:31:09.156Z,17.00
2019-02-16T14:33:37.167Z,16.80
2019-02-16T14:36:08.432Z,16.80
2019-02-16T14:38:51.455Z,16.60
2019-02-16T14:41:19.596Z,16.50
2019-02-16T14:43:47.690Z,16.40
2019-02-16T14:46:15.878Z,16.40
2019-02-16T14:48:43.777Z,16.40
2019-02-16T14:51:11.749Z,16.30
2019-02-16T14:53:39.835Z,16.30
2019-02-16T14:56:07.731Z,16.20
2019-02-16T14:58:35.630Z,16.20
2019-02-16T15:01:03.652Z,16.20
2019-02-16T15:03:31.691Z,16.20
2019-02-16T15:05:59.610Z,16.10
2019-02-16T15:08:27.557Z,16.00
2019-02-16T15:10:55.571Z,15.90
2019-02-16T15:13:23.556Z,15.80
2019-02-16T15:15:51.483Z,15.70
2019-02-16T15:18:19.395Z,15.60
2019-02-16T15:20:47.302Z,15.50
2019-02-16T15:23:15.254Z,15.40
2019-02-16T15:25:43.289Z,15.40
2019-02-16T15:28:11.212Z,15.40
2019-02-16T15:30:39.286Z,15.20
2019-02-16T15:33:07.503Z,15.10
2019-02-16T15:35:35.493Z,15.20
2019-02-16T15:38:03.572Z,15.10
2019-02-16T15:40:31.481Z,15.10
2019-02-16T15:42:59.923Z,15.20
2019-02-16T15:45:34.057Z,15.10
2019-02-16T15:47:57.915Z,15.00
2019-02-16T15:50:26.084Z,14.90
2019-02-16T15:53:04.429Z,14.80
2019-02-16T15:55:33.256Z,14.70
2019-02-16T15:58:05.182Z,14.60
2019-02-16T16:00:33.330Z,14.50
2019-02-16T16:03:01.395Z,14.40
2019-02-16T16:05:29.453Z,14.50
2019-02-16T16:08:16.892Z,14.40
2019-02-16T16:10:53.807Z,14.30
2019-02-16T16:13:39.394Z,14.20
2019-02-16T16:16:17.529Z,14.20
2019-02-16T16:19:10.881Z,14.10
2019-02-16T16:22:13.156Z,14.00
2019-02-16T16:24:49.730Z,14.00
2019-02-16T16:27:27.104Z,14.10
2019-02-16T16:30:29.669Z,14.00
2019-02-16T16:33:14.444Z,13.90
2019-02-16T16:36:13.988Z,13.90
2019-02-16T16:38:55.054Z,13.80
2019-02-16T16:41:45.211Z,13.80
2019-02-16T16:44:41.408Z,13.60
2019-02-16T16:47:27.234Z,13.40
2019-02-16T16:50:18.520Z,13.20
2019-02-16T16:53:03.888Z,13.20
2019-02-16T16:55:51.139Z,13.10
2019-02-16T16:58:33.495Z,13.10
2019-02-16T17:01:19.015Z,13.00
2019-02-16T17:03:58.354Z,12.90
2019-02-16T17:06:33.280Z,13.00
2019-02-16T17:09:18.091Z,12.90
2019-02-16T17:12:15.419Z,12.90
2019-02-16T17:15:02.585Z,12.70
2019-02-16T17:17:48.249Z,12.60
2019-02-16T17:20:34.309Z,12.70
2019-02-16T17:23:10.908Z,12.60
2019-02-16T17:26:01.163Z,12.50
2019-02-16T17:28:44.870Z,12.40
2019-02-16T17:31:38.206Z,12.40
2019-02-16T17:34:24.185Z,12.20
2019-02-16T17:37:17.528Z,12.20
2019-02-16T17:40:06.377Z,12.10
2019-02-16T17:42:56.296Z,12.10
2019-02-16T17:45:53.414Z,12.10
2019-02-16T17:48:45.091Z,12.10
2019-02-16T17:51:21.142Z,12.10
2019-02-16T17:54:07.846Z,12.00
2019-02-16T17:56:46.642Z,11.90
2019-02-16T17:59:20.581Z,12.00
2019-02-16T18:02:06.817Z,12.10
2019-02-16T18:05:06.464Z,12.00
2019-02-16T18:07:44.705Z,12.00
2019-02-16T18:10:32.085Z,11.90
2019-02-16T18:13:31.715Z,11.80
2019-02-16T18:16:25.054Z,11.80
2019-02-16T18:19:10.099Z,11.80
2019-02-16T18:22:00.092Z,11.70
2019-02-16T18:24:59.427Z,11.60
2019-02-16T18:27:45.871Z,11.50
2019-02-16T18:30:21.602Z,11.40
2019-02-16T18:32:59.226Z,11.40
2019-02-16T18:35:58.753Z,11.30
2019-02-16T18:38:46.017Z,11.20
2019-02-16T18:41:39.174Z,11.10
2019-02-16T18:44:15.052Z,11.10
2019-02-16T18:47:05.133Z,11.10
2019-02-16T18:49:51.237Z,11.00
2019-02-16T18:52:50.678Z,11.10
2019-02-16T18:55:31.834Z,11.10
2019-02-16T18:58:17.462Z,11.00
2019-02-16T19:01:07.668Z,10.90
2019-02-16T19:04:04.102Z,10.90
2019-02-16T19:06:53.045Z,10.90
2019-02-16T19:09:38.612Z,11.00
2019-02-16T19:12:24.329Z,10.90
2019-02-16T19:14:59.116Z,10.90
2019-02-16T19:17:57.998Z,10.90
2019-02-16T19:20:48.308Z,10.80
2019-02-16T19:23:25.218Z,10.80
2019-02-16T19:26:15.470Z,10.70
2019-02-16T19:29:01.123Z,10.60
2019-02-16T19:31:48.323Z,10.40
2019-02-16T19:34:38.178Z,10.30
2019-02-16T19:37:24.181Z,10.30
2019-02-16T19:40:11.745Z,10.20
2019-02-16T19:43:01.295Z,10.20
2019-02-16T19:45:45.941Z,10.30
2019-02-16T19:48:48.240Z,10.30
2019-02-16T19:51:41.136Z,10.40
2019-02-16T19:54:31.563Z,10.50
2019-02-16T19:57:27.233Z,10.50
2019-02-16T20:00:16.891Z,10.50
2019-02-16T20:03:13.275Z,10.50
2019-02-16T20:05:51.160Z,10.50
2019-02-16T20:08:27.776Z,10.50
2019-02-16T20:11:17.816Z,10.40
2019-02-16T20:13:58.948Z,10.50
2019-02-16T20:16:52.127Z,10.60
2019-02-16T20:19:45.200Z,10.50
2019-02-16T20:22:32.362Z,10.60
2019-02-16T20:25:25.349Z,10.60
2019-02-16T20:27:59.766Z,10.50
2019-02-16T20:30:49.274Z,10.40
2019-02-16T20:33:39.588Z,10.30
2019-02-16T20:36:31.627Z,10.30
2019-02-16T20:39:13.691Z,10.20
2019-02-16T20:41:51.199Z,10.30
2019-02-16T20:44:29.585Z,10.20
2019-02-16T20:47:32.372Z,10.30
2019-02-16T20:50:08.308Z,10.40
2019-02-16T20:52:53.663Z,10.30
2019-02-16T20:55:46.772Z,10.40
2019-02-16T20:58:24.879Z,10.40
2019-02-16T21:01:05.340Z,10.40
2019-02-16T21:03:56.523Z,10.40
2019-02-16T21:06:41.188Z,10.30
2019-02-16T21:09:28.432Z,10.40
2019-02-16T21:12:06.430Z,10.30
2019-02-16T21:14:46.687Z,10.30
2019-02-16T21:17:45.995Z,10.20
2019-02-16T21:20:24.983Z,10.20
2019-02-16T21:23:14.936Z,10.20
2019-02-16T21:25:56.798Z,10.10
2019-02-16T21:28:47.941Z,10.20
2019-02-16T21:31:24.122Z,10.10
2019-02-16T21:34:14.256Z,10.00
2019-02-16T21:37:04.568Z,9.90
2019-02-16T21:39:51.716Z,9.80
2019-02-16T21:42:28.611Z,9.80
2019-02-16T21:45:07.963Z,9.60
2019-02-16T21:47:49.545Z,9.50
2019-02-16T21:50:36.782Z,9.40
2019-02-16T21:59:55.630Z,9.20
2019-02-16T22:03:15.904Z,9.20
2019-02-16T22:05:56.018Z,9.10
2019-02-16T22:08:58.237Z,9.00
2019-02-16T22:11:43.168Z,9.00
2019-02-16T22:14:11.163Z,8.90
2019-02-16T22:16:39.056Z,8.80
2019-02-16T22:19:07.000Z,8.80
2019-02-16T22:21:34.903Z,8.80
2019-02-16T22:24:02.890Z,8.80
2019-02-16T22:26:30.878Z,8.80
2019-02-16T22:28:58.874Z,8.70
2019-02-16T22:31:27.759Z,8.60
2019-02-16T22:33:55.695Z,8.50
2019-02-16T22:36:23.824Z,8.40
2019-02-16T22:38:51.709Z,8.40
2019-02-16T22:41:19.724Z,8.30
2019-02-16T22:43:47.833Z,8.30
2019-02-16T22:46:15.808Z,8.30
2019-02-16T22:48:43.739Z,8.20
2019-02-16T22:51:12.055Z,8.20
2019-02-16T22:53:42.886Z,8.20
2019-02-16T22:56:11.094Z,8.10
2019-02-16T22:58:39.856Z,8.10
2019-02-16T23:01:08.397Z,7.90
2019-02-16T23:03:40.210Z,7.80
2019-02-16T23:06:08.311Z,7.80
2019-02-16T23:08:36.397Z,7.80
2019-02-16T23:11:04.752Z,7.80
2019-02-16T23:13:33.208Z,7.80
2019-02-16T23:16:01.691Z,7.80
2019-02-16T23:18:29.693Z,7.70
2019-02-16T23:20:57.706Z,7.80
2019-02-16T23:23:25.736Z,7.70
2019-02-16T23:25:53.725Z,7.50
2019-02-16T23:28:21.674Z,7.40
2019-02-16T23:30:49.667Z,7.40
2019-02-16T23:33:17.664Z,7.30
2019-02-16T23:35:45.696Z,7.20
2019-02-16T23:38:13.630Z,7.30
2019-02-16T23:40:41.680Z,7.20
2019-02-16T23:43:09.658Z,7.30
2019-02-16T23:45:37.610Z,7.30
2019-02-16T23:48:05.607Z,7.30
2019-02-16T23:50:33.668Z,7.40
2019-02-16T23:53:01.607Z,7.30
2019-02-16T23:55:29.531Z,7.40
2019-02-16T23:57:57.477Z,7.30
